sensor_id;sensor_type;location;lat;lon;timestamp;pressure;altitude;pressure_sealevel;temperature;humidity
71697;BME280;68167;59.120;37.898;2023-04-25T00:01:21;99574.16;;;11.19;43.45
71697;BME280;68167;59.120;37.898;2023-04-25T00:03:48;99477.44;;;10.57;43.77
71697;BME280;68167;59.120;37.898;2023-04-25T00:06:14;99582.94;;;11.14;43.66
71697;BME280;68167;59.120;37.898;2023-04-25T00:08:41;99583.75;;;11.10;43.62
71697;BME280;68167;59.120;37.898;2023-04-25T00:11:07;99565.91;;;10.95;43.73
71697;BME280;68167;59.120;37.898;2023-04-25T00:13:33;99562.13;;;10.81;43.61
71697;BME280;68167;59.120;37.898;2023-04-25T00:16:00;99577.59;;;10.89;43.60
71697;BME280;68167;59.120;37.898;2023-04-25T00:18:28;99593.56;;;10.89;44.30
71697;BME280;68167;59.120;37.898;2023-04-25T00:20:55;99574.63;;;10.75;44.42
71697;BME280;68167;59.120;37.898;2023-04-25T00:23:22;99548.25;;;10.59;44.60
71697;BME280;68167;59.120;37.898;2023-04-25T00:25:50;99592.22;;;10.76;44.19
71697;BME280;68167;59.120;37.898;2023-04-25T00:28:16;99586.06;;;10.71;44.07
71697;BME280;68167;59.120;37.898;2023-04-25T00:30:43;99585.28;;;10.70;44.76
71697;BME280;68167;59.120;37.898;2023-04-25T00:33:09;99526.91;;;10.33;44.81
71697;BME280;68167;59.120;37.898;2023-04-25T00:35:36;99486.59;;;10.04;44.47
71697;BME280;68167;59.120;37.898;2023-04-25T00:38:02;99572.72;;;10.55;44.49
71697;BME280;68167;59.120;37.898;2023-04-25T00:40:29;99581.50;;;10.56;45.10
71697;BME280;68167;59.120;37.898;2023-04-25T00:42:55;99587.09;;;10.60;45.07
71697;BME280;68167;59.120;37.898;2023-04-25T00:45:27;99593.22;;;10.55;44.67
71697;BME280;68167;59.120;37.898;2023-04-25T00:47:54;99587.88;;;10.50;45.19
71697;BME280;68167;59.120;37.898;2023-04-25T00:50:21;99495.81;;;9.86;45.08
71697;BME280;68167;59.120;37.898;2023-04-25T00:52:47;99552.88;;;10.16;45.44
71697;BME280;68167;59.120;37.898;2023-04-25T00:55:14;99588.38;;;10.37;46.00
71697;BME280;68167;59.120;37.898;2023-04-25T00:57:42;99574.75;;;10.28;45.58
71697;BME280;68167;59.120;37.898;2023-04-25T01:00:09;99584.63;;;10.33;46.00
71697;BME280;68167;59.120;37.898;2023-04-25T01:02:37;99590.50;;;10.35;45.98
71697;BME280;68167;59.120;37.898;2023-04-25T01:05:04;99574.19;;;10.21;45.94
71697;BME280;68167;59.120;37.898;2023-04-25T01:07:33;99580.25;;;10.16;46.15
71697;BME280;68167;59.120;37.898;2023-04-25T01:10:00;99582.44;;;10.19;46.47
71697;BME280;68167;59.120;37.898;2023-04-25T01:12:30;99575.47;;;10.13;46.51
71697;BME280;68167;59.120;37.898;2023-04-25T01:14:56;99589.91;;;10.22;46.77
71697;BME280;68167;59.120;37.898;2023-04-25T01:17:23;99548.53;;;10.00;46.16
71697;BME280;68167;59.120;37.898;2023-04-25T01:19:50;99530.09;;;9.83;46.62
71697;BME280;68167;59.120;37.898;2023-04-25T01:22:17;99550.34;;;9.94;46.72
71697;BME280;68167;59.120;37.898;2023-04-25T01:24:44;99596.28;;;10.21;46.32
71697;BME280;68167;59.120;37.898;2023-04-25T01:27:11;99600.53;;;10.22;46.28
71697;BME280;68167;59.120;37.898;2023-04-25T01:29:38;99604.28;;;10.27;46.58
71697;BME280;68167;59.120;37.898;2023-04-25T01:32:06;99548.50;;;9.95;46.59
71697;BME280;68167;59.120;37.898;2023-04-25T01:34:33;99603.50;;;10.31;46.62
71697;BME280;68167;59.120;37.898;2023-04-25T01:37:00;99592.03;;;10.26;46.64
71697;BME280;68167;59.120;37.898;2023-04-25T01:39:29;99596.84;;;10.29;46.82
71697;BME280;68167;59.120;37.898;2023-04-25T01:41:57;99585.16;;;10.30;46.39
71697;BME280;68167;59.120;37.898;2023-04-25T01:44:24;99597.66;;;10.34;46.75
71697;BME280;68167;59.120;37.898;2023-04-25T01:46:50;99604.59;;;10.40;47.18
71697;BME280;68167;59.120;37.898;2023-04-25T01:49:17;99601.66;;;10.42;46.73
71697;BME280;68167;59.120;37.898;2023-04-25T01:51:45;99577.97;;;10.30;46.35
71697;BME280;68167;59.120;37.898;2023-04-25T01:54:12;99608.06;;;10.46;47.07
71697;BME280;68167;59.120;37.898;2023-04-25T01:56:39;99595.81;;;10.45;47.42
71697;BME280;68167;59.120;37.898;2023-04-25T01:59:08;99596.91;;;10.49;46.72
71697;BME280;68167;59.120;37.898;2023-04-25T02:02:03;99602.53;;;10.57;46.99
71697;BME280;68167;59.120;37.898;2023-04-25T02:04:32;99611.88;;;10.65;46.36
71697;BME280;68167;59.120;37.898;2023-04-25T02:06:59;99548.47;;;10.37;46.99
71697;BME280;68167;59.120;37.898;2023-04-25T02:09:33;99548.44;;;10.42;46.37
71697;BME280;68167;59.120;37.898;2023-04-25T02:12:04;99587.16;;;10.75;46.53
71697;BME280;68167;59.120;37.898;2023-04-25T02:14:35;99595.69;;;10.87;45.95
71697;BME280;68167;59.120;37.898;2023-04-25T02:17:12;99603.47;;;10.99;46.25
71697;BME280;68167;59.120;37.898;2023-04-25T02:19:38;99569.84;;;10.77;46.08
71697;BME280;68167;59.120;37.898;2023-04-25T02:22:07;99607.44;;;11.06;45.69
71697;BME280;68167;59.120;37.898;2023-04-25T02:24:34;99610.66;;;11.13;45.87
71697;BME280;68167;59.120;37.898;2023-04-25T02:27:01;99572.00;;;10.91;45.99
71697;BME280;68167;59.120;37.898;2023-04-25T02:29:29;99606.38;;;11.17;45.54
71697;BME280;68167;59.120;37.898;2023-04-25T02:31:56;99612.00;;;11.21;45.40
71697;BME280;68167;59.120;37.898;2023-04-25T02:34:22;99623.16;;;11.13;45.32
71697;BME280;68167;59.120;37.898;2023-04-25T02:36:49;99581.59;;;10.92;45.40
71697;BME280;68167;59.120;37.898;2023-04-25T02:39:18;99606.63;;;11.06;45.56
71697;BME280;68167;59.120;37.898;2023-04-25T02:41:45;99629.56;;;11.17;45.79
71697;BME280;68167;59.120;37.898;2023-04-25T02:44:12;99608.00;;;11.03;45.11
71697;BME280;68167;59.120;37.898;2023-04-25T02:46:38;99628.50;;;11.13;45.48
71697;BME280;68167;59.120;37.898;2023-04-25T02:49:06;99629.56;;;11.17;45.12
71697;BME280;68167;59.120;37.898;2023-04-25T02:51:33;99615.97;;;11.13;45.46
71697;BME280;68167;59.120;37.898;2023-04-25T02:54:00;99617.56;;;11.14;45.75
71697;BME280;68167;59.120;37.898;2023-04-25T02:56:27;99590.94;;;10.94;45.24
71697;BME280;68167;59.120;37.898;2023-04-25T02:58:53;99566.13;;;10.78;45.95
71697;BME280;68167;59.120;37.898;2023-04-25T03:01:20;99532.28;;;10.59;45.29
71697;BME280;68167;59.120;37.898;2023-04-25T03:03:47;99615.44;;;11.11;45.84
71697;BME280;68167;59.120;37.898;2023-04-25T03:06:14;99605.59;;;11.02;45.79
71697;BME280;68167;59.120;37.898;2023-04-25T03:08:41;99576.00;;;10.88;45.11
71697;BME280;68167;59.120;37.898;2023-04-25T03:11:10;99581.34;;;10.93;45.82
71697;BME280;68167;59.120;37.898;2023-04-25T03:13:36;99571.75;;;10.87;45.71
71697;BME280;68167;59.120;37.898;2023-04-25T03:16:04;99620.78;;;11.16;45.27
71697;BME280;68167;59.120;37.898;2023-04-25T03:18:30;99623.19;;;11.18;45.42
71697;BME280;68167;59.120;37.898;2023-04-25T03:20:57;99575.75;;;10.89;45.20
71697;BME280;68167;59.120;37.898;2023-04-25T03:23:24;99577.59;;;10.89;45.97
71697;BME280;68167;59.120;37.898;2023-04-25T03:25:50;99613.84;;;11.15;45.22
71697;BME280;68167;59.120;37.898;2023-04-25T03:28:17;99618.09;;;11.16;46.04
71697;BME280;68167;59.120;37.898;2023-04-25T03:30:44;99625.31;;;11.16;45.63
71697;BME280;68167;59.120;37.898;2023-04-25T03:33:11;99628.75;;;11.11;45.58
71697;BME280;68167;59.120;37.898;2023-04-25T03:35:37;99629.56;;;11.17;45.47
71697;BME280;68167;59.120;37.898;2023-04-25T03:38:04;99623.16;;;11.08;45.75
71697;BME280;68167;59.120;37.898;2023-04-25T03:40:35;99636.78;;;11.21;45.86
71697;BME280;68167;59.120;37.898;2023-04-25T03:43:08;99593.06;;;10.92;45.82
71697;BME280;68167;59.120;37.898;2023-04-25T03:45:36;99623.69;;;11.10;45.65
71697;BME280;68167;59.120;37.898;2023-04-25T03:48:03;99621.31;;;11.13;46.36
71697;BME280;68167;59.120;37.898;2023-04-25T03:50:31;99624.50;;;11.15;45.86
71697;BME280;68167;59.120;37.898;2023-04-25T03:52:57;99634.91;;;11.27;46.38
71697;BME280;68167;59.120;37.898;2023-04-25T03:55:27;99614.38;;;11.17;45.64
71697;BME280;68167;59.120;37.898;2023-04-25T03:57:53;99628.53;;;11.28;46.31
71697;BME280;68167;59.120;37.898;2023-04-25T04:00:20;99603.72;;;11.12;45.91
71697;BME280;68167;59.120;37.898;2023-04-25T04:02:50;99648.00;;;11.44;45.86
71697;BME280;68167;59.120;37.898;2023-04-25T04:05:18;99636.81;;;11.42;45.96
71697;BME280;68167;59.120;37.898;2023-04-25T04:07:51;99600.28;;;11.22;45.90
71697;BME280;68167;59.120;37.898;2023-04-25T04:10:17;99650.13;;;11.57;45.69
71697;BME280;68167;59.120;37.898;2023-04-25T04:12:46;99638.94;;;11.60;45.80
71697;BME280;68167;59.120;37.898;2023-04-25T04:15:12;99596.56;;;11.33;45.56
71697;BME280;68167;59.120;37.898;2023-04-25T04:17:40;99593.63;;;11.35;45.87
71697;BME280;68167;59.120;37.898;2023-04-25T04:20:08;99642.69;;;11.69;45.75
71697;BME280;68167;59.120;37.898;2023-04-25T04:22:35;99510.75;;;10.91;46.09
71697;BME280;68167;59.120;37.898;2023-04-25T04:25:07;99608.28;;;11.47;45.85
71697;BME280;68167;59.120;37.898;2023-04-25T04:28:10;99595.50;;;11.60;46.10
71697;BME280;68167;59.120;37.898;2023-04-25T04:31:03;99633.59;;;11.96;45.38
71697;BME280;68167;59.120;37.898;2023-04-25T04:33:30;99594.38;;;11.76;45.57
71697;BME280;68167;59.120;37.898;2023-04-25T04:36:01;99595.47;;;11.85;45.56
71697;BME280;68167;59.120;37.898;2023-04-25T04:38:29;99633.03;;;12.09;45.86
71697;BME280;68167;59.120;37.898;2023-04-25T04:41:00;99645.31;;;12.20;44.70
71697;BME280;68167;59.120;37.898;2023-04-25T04:43:50;99621.56;;;12.13;45.01
71697;BME280;68167;59.120;37.898;2023-04-25T04:46:54;99644.69;;;12.38;44.95
71697;BME280;68167;59.120;37.898;2023-04-25T04:49:32;99606.88;;;12.21;44.81
71697;BME280;68167;59.120;37.898;2023-04-25T04:52:19;99626.00;;;12.38;44.40
71697;BME280;68167;59.120;37.898;2023-04-25T04:54:48;99637.41;;;12.59;44.55
71697;BME280;68167;59.120;37.898;2023-04-25T04:57:35;99643.78;;;12.68;44.36
71697;BME280;68167;59.120;37.898;2023-04-25T05:00:19;99630.72;;;12.67;44.10
71697;BME280;68167;59.120;37.898;2023-04-25T05:03:06;99637.59;;;12.78;43.98
71697;BME280;68167;59.120;37.898;2023-04-25T05:05:51;99641.84;;;12.89;43.74
71697;BME280;68167;59.120;37.898;2023-04-25T05:08:27;99631.66;;;12.91;43.60
71697;BME280;68167;59.120;37.898;2023-04-25T05:11:13;99628.91;;;13.01;43.67
71697;BME280;68167;59.120;37.898;2023-04-25T05:13:59;99628.84;;;13.16;43.35
71697;BME280;68167;59.120;37.898;2023-04-25T05:16:42;99629.59;;;13.27;43.25
71697;BME280;68167;59.120;37.898;2023-04-25T05:19:28;99640.69;;;13.44;43.35
71697;BME280;68167;59.120;37.898;2023-04-25T05:22:13;99625.94;;;13.52;43.29
71697;BME280;68167;59.120;37.898;2023-04-25T05:24:54;99623.47;;;13.61;42.89
71697;BME280;68167;59.120;37.898;2023-04-25T05:27:50;99631.31;;;13.76;42.33
71697;BME280;68167;59.120;37.898;2023-04-25T05:30:47;99603.97;;;13.55;41.95
71697;BME280;68167;59.120;37.898;2023-04-25T05:33:17;99612.13;;;13.69;41.81
71697;BME280;68167;59.120;37.898;2023-04-25T05:35:45;99646.13;;;13.97;41.63
71697;BME280;68167;59.120;37.898;2023-04-25T05:38:11;99656.22;;;14.05;41.82
71697;BME280;68167;59.120;37.898;2023-04-25T05:40:57;99609.09;;;13.80;41.58
71697;BME280;68167;59.120;37.898;2023-04-25T05:43:38;99648.59;;;14.17;41.67
71697;BME280;68167;59.120;37.898;2023-04-25T05:46:19;99574.34;;;13.75;41.12
71697;BME280;68167;59.120;37.898;2023-04-25T05:49:08;99649.22;;;14.33;41.35
71697;BME280;68167;59.120;37.898;2023-04-25T05:51:54;99618.38;;;14.17;41.09
71697;BME280;68167;59.120;37.898;2023-04-25T05:54:53;99654.22;;;14.45;41.09
71697;BME280;68167;59.120;37.898;2023-04-25T05:57:27;99602.75;;;14.24;41.33
71697;BME280;68167;59.120;37.898;2023-04-25T05:59:55;99652.63;;;14.68;41.07
71697;BME280;68167;59.120;37.898;2023-04-25T06:02:25;99650.38;;;14.75;40.35
71697;BME280;68167;59.120;37.898;2023-04-25T06:04:53;99644.91;;;14.85;40.52
71697;BME280;68167;59.120;37.898;2023-04-25T06:07:22;99654.19;;;14.93;39.79
71697;BME280;68167;59.120;37.898;2023-04-25T06:09:49;99649.47;;;14.85;39.83
71697;BME280;68167;59.120;37.898;2023-04-25T06:12:15;99612.78;;;14.61;39.71
71697;BME280;68167;59.120;37.898;2023-04-25T06:14:42;99596.03;;;14.50;39.80
71697;BME280;68167;59.120;37.898;2023-04-25T06:17:09;99657.38;;;14.95;39.50
71697;BME280;68167;59.120;37.898;2023-04-25T06:19:36;99604.03;;;14.74;39.82
71697;BME280;68167;59.120;37.898;2023-04-25T06:22:02;99653.88;;;15.13;39.56
71697;BME280;68167;59.120;37.898;2023-04-25T06:24:30;99615.56;;;14.94;39.80
71697;BME280;68167;59.120;37.898;2023-04-25T06:26:57;99657.16;;;15.29;39.42
71697;BME280;68167;59.120;37.898;2023-04-25T06:29:24;99643.44;;;15.30;39.04
71697;BME280;68167;59.120;37.898;2023-04-25T06:31:50;99649.81;;;15.34;39.06
71697;BME280;68167;59.120;37.898;2023-04-25T06:34:17;99656.13;;;15.43;38.48
71697;BME280;68167;59.120;37.898;2023-04-25T06:36:44;99654.75;;;15.46;38.50
71697;BME280;68167;59.120;37.898;2023-04-25T06:39:14;99582.16;;;15.05;38.37
71697;BME280;68167;59.120;37.898;2023-04-25T06:41:41;99611.84;;;15.27;37.90
71697;BME280;68167;59.120;37.898;2023-04-25T06:44:14;99655.69;;;15.55;37.55
71697;BME280;68167;59.120;37.898;2023-04-25T06:46:51;99657.13;;;15.66;37.75
71697;BME280;68167;59.120;37.898;2023-04-25T06:49:18;99634.22;;;15.55;38.06
71697;BME280;68167;59.120;37.898;2023-04-25T06:51:45;99622.47;;;15.51;37.71
71697;BME280;68167;59.120;37.898;2023-04-25T06:54:11;99631.66;;;15.64;37.82
71697;BME280;68167;59.120;37.898;2023-04-25T06:56:46;99666.56;;;15.96;37.29
71697;BME280;68167;59.120;37.898;2023-04-25T06:59:16;99674.31;;;15.98;37.64
71697;BME280;68167;59.120;37.898;2023-04-25T07:01:45;99646.63;;;15.84;37.43
71697;BME280;68167;59.120;37.898;2023-04-25T07:04:17;99627.94;;;15.78;37.29
71697;BME280;68167;59.120;37.898;2023-04-25T07:06:55;99635.00;;;15.88;36.84
71697;BME280;68167;59.120;37.898;2023-04-25T07:09:42;99624.19;;;15.93;37.23
71697;BME280;68167;59.120;37.898;2023-04-25T07:12:08;99674.56;;;16.29;37.24
71697;BME280;68167;59.120;37.898;2023-04-25T07:14:35;99640.16;;;16.17;36.87
71697;BME280;68167;59.120;37.898;2023-04-25T07:17:01;99617.16;;;16.11;37.30
71697;BME280;68167;59.120;37.898;2023-04-25T07:19:30;99643.72;;;16.26;37.01
71697;BME280;68167;59.120;37.898;2023-04-25T07:21:59;99690.75;;;16.70;36.35
71697;BME280;68167;59.120;37.898;2023-04-25T07:24:26;99638.44;;;16.48;36.51
71697;BME280;68167;59.120;37.898;2023-04-25T07:26:54;99608.78;;;16.40;36.63
71697;BME280;68167;59.120;37.898;2023-04-25T07:29:53;99656.56;;;16.84;36.68
71697;BME280;68167;59.120;37.898;2023-04-25T07:32:22;99692.66;;;17.19;36.36
71697;BME280;68167;59.120;37.898;2023-04-25T07:34:49;99691.63;;;17.29;36.58
71697;BME280;68167;59.120;37.898;2023-04-25T07:37:15;99672.31;;;17.27;35.36
71697;BME280;68167;59.120;37.898;2023-04-25T07:39:58;99681.00;;;17.24;34.88
71697;BME280;68167;59.120;37.898;2023-04-25T07:42:25;99703.81;;;17.26;34.40
71697;BME280;68167;59.120;37.898;2023-04-25T07:44:51;99670.72;;;16.76;34.20
71697;BME280;68167;59.120;37.898;2023-04-25T07:47:18;99664.44;;;16.53;34.18
71697;BME280;68167;59.120;37.898;2023-04-25T07:49:47;99708.66;;;16.74;34.23
71697;BME280;68167;59.120;37.898;2023-04-25T07:52:14;99664.22;;;16.36;34.14
71697;BME280;68167;59.120;37.898;2023-04-25T07:54:46;99684.72;;;16.45;34.25
71697;BME280;68167;59.120;37.898;2023-04-25T07:57:19;99716.91;;;16.64;33.87
71697;BME280;68167;59.120;37.898;2023-04-25T07:59:47;99674.06;;;16.40;33.94
71697;BME280;68167;59.120;37.898;2023-04-25T08:02:13;99663.91;;;16.37;34.10
71697;BME280;68167;59.120;37.898;2023-04-25T08:04:40;99694.59;;;16.64;34.28
71697;BME280;68167;59.120;37.898;2023-04-25T08:07:08;99707.47;;;16.81;34.39
71697;BME280;68167;59.120;37.898;2023-04-25T08:09:42;99707.22;;;16.91;34.52
71697;BME280;68167;59.120;37.898;2023-04-25T08:12:16;99707.94;;;16.96;34.17
71697;BME280;68167;59.120;37.898;2023-04-25T08:14:44;99645.50;;;16.58;33.82
71697;BME280;68167;59.120;37.898;2023-04-25T08:17:11;99699.75;;;17.01;34.42
71697;BME280;68167;59.120;37.898;2023-04-25T08:19:40;99694.97;;;16.98;33.72
71697;BME280;68167;59.120;37.898;2023-04-25T08:22:13;99663.41;;;16.90;33.44
71697;BME280;68167;59.120;37.898;2023-04-25T08:24:49;99707.78;;;17.29;33.63
71697;BME280;68167;59.120;37.898;2023-04-25T08:27:18;99680.50;;;17.22;33.31
71697;BME280;68167;59.120;37.898;2023-04-25T08:29:44;99713.41;;;17.55;33.09
71697;BME280;68167;59.120;37.898;2023-04-25T08:32:10;99697.50;;;17.67;32.63
71697;BME280;68167;59.120;37.898;2023-04-25T08:34:42;99708.22;;;17.81;32.51
71697;BME280;68167;59.120;37.898;2023-04-25T08:37:10;99686.56;;;17.86;32.53
71697;BME280;68167;59.120;37.898;2023-04-25T08:39:40;99700.84;;;18.17;32.40
71697;BME280;68167;59.120;37.898;2023-04-25T08:42:27;99688.41;;;18.38;31.55
71697;BME280;68167;59.120;37.898;2023-04-25T08:44:55;99669.59;;;18.47;31.71
71697;BME280;68167;59.120;37.898;2023-04-25T08:47:27;99652.53;;;18.60;30.96
71697;BME280;68167;59.120;37.898;2023-04-25T08:49:57;99648.94;;;18.82;31.80
71697;BME280;68167;59.120;37.898;2023-04-25T08:52:30;99662.94;;;19.10;30.15
71697;BME280;68167;59.120;37.898;2023-04-25T08:55:01;99672.16;;;19.26;29.96
71697;BME280;68167;59.120;37.898;2023-04-25T08:57:31;99679.31;;;19.48;29.74
71697;BME280;68167;59.120;37.898;2023-04-25T08:59:58;99633.56;;;19.34;29.27
71697;BME280;68167;59.120;37.898;2023-04-25T09:02:31;99678.66;;;19.68;28.86
71697;BME280;68167;59.120;37.898;2023-04-25T09:04:58;99676.78;;;19.60;28.60
71697;BME280;68167;59.120;37.898;2023-04-25T09:07:25;99634.38;;;19.35;28.31
71697;BME280;68167;59.120;37.898;2023-04-25T09:09:52;99688.38;;;19.61;28.60
71697;BME280;68167;59.120;37.898;2023-04-25T09:12:22;99671.53;;;19.64;28.58
71697;BME280;68167;59.120;37.898;2023-04-25T09:17:42;99685.13;;;20.02;28.63
71697;BME280;68167;59.120;37.898;2023-04-25T09:20:14;99676.00;;;20.15;28.44
71697;BME280;68167;59.120;37.898;2023-04-25T09:22:41;99637.31;;;19.94;28.23
71697;BME280;68167;59.120;37.898;2023-04-25T09:25:11;99660.59;;;20.16;28.77
71697;BME280;68167;59.120;37.898;2023-04-25T09:27:51;99654.13;;;20.08;28.63
71697;BME280;68167;59.120;37.898;2023-04-25T09:30:34;99683.09;;;20.37;28.29
71697;BME280;68167;59.120;37.898;2023-04-25T09:33:11;99666.94;;;20.20;28.23
71697;BME280;68167;59.120;37.898;2023-04-25T09:35:44;99682.03;;;20.21;28.61
71697;BME280;68167;59.120;37.898;2023-04-25T09:38:44;99644.63;;;19.85;28.94
71697;BME280;68167;59.120;37.898;2023-04-25T09:41:23;99639.28;;;19.67;29.27
71697;BME280;68167;59.120;37.898;2023-04-25T09:43:50;99685.47;;;20.00;29.43
71697;BME280;68167;59.120;37.898;2023-04-25T09:46:17;99673.06;;;19.99;29.88
71697;BME280;68167;59.120;37.898;2023-04-25T09:48:50;99688.97;;;20.01;29.78
71697;BME280;68167;59.120;37.898;2023-04-25T09:51:25;99653.72;;;19.63;29.76
71697;BME280;68167;59.120;37.898;2023-04-25T09:53:52;99665.63;;;19.70;29.98
71697;BME280;68167;59.120;37.898;2023-04-25T09:56:39;99690.56;;;19.93;30.06
71697;BME280;68167;59.120;37.898;2023-04-25T09:59:08;99648.94;;;19.77;29.95
71697;BME280;68167;59.120;37.898;2023-04-25T10:01:39;99661.16;;;19.83;29.78
71697;BME280;68167;59.120;37.898;2023-04-25T10:04:16;99702.16;;;19.94;30.24
71697;BME280;68167;59.120;37.898;2023-04-25T10:06:58;99700.41;;;19.89;30.60
71697;BME280;68167;59.120;37.898;2023-04-25T10:09:26;99678.97;;;19.84;30.91
71697;BME280;68167;59.120;37.898;2023-04-25T10:11:56;99677.69;;;19.90;30.25
71697;BME280;68167;59.120;37.898;2023-04-25T10:14:23;99666.69;;;20.04;29.92
71697;BME280;68167;59.120;37.898;2023-04-25T10:16:50;99668.94;;;20.49;29.51
71697;BME280;68167;59.120;37.898;2023-04-25T10:19:20;99708.84;;;21.11;29.38
71697;BME280;68167;59.120;37.898;2023-04-25T10:24:23;99677.75;;;21.17;27.90
71697;BME280;68167;59.120;37.898;2023-04-25T10:26:51;99712.41;;;21.32;27.79
71697;BME280;68167;59.120;37.898;2023-04-25T10:29:24;99663.72;;;20.94;28.40
71697;BME280;68167;59.120;37.898;2023-04-25T10:31:52;99704.75;;;21.34;27.97
71697;BME280;68167;59.120;37.898;2023-04-25T10:34:18;99662.97;;;21.14;27.51
71697;BME280;68167;59.120;37.898;2023-04-25T10:36:52;99697.81;;;21.24;27.68
71697;BME280;68167;59.120;37.898;2023-04-25T10:39:23;99660.66;;;21.04;28.31
71697;BME280;68167;59.120;37.898;2023-04-25T10:41:55;99710.31;;;21.38;27.74
71697;BME280;68167;59.120;37.898;2023-04-25T10:44:22;99676.69;;;21.09;28.50
71697;BME280;68167;59.120;37.898;2023-04-25T10:46:48;99687.94;;;21.20;27.96
71697;BME280;68167;59.120;37.898;2023-04-25T10:49:30;99698.63;;;21.58;27.60
71697;BME280;68167;59.120;37.898;2023-04-25T10:54:54;99663.00;;;21.68;26.64
71697;BME280;68167;59.120;37.898;2023-04-25T10:57:32;99704.56;;;21.72;27.86
71697;BME280;68167;59.120;37.898;2023-04-25T11:00:12;99683.69;;;21.40;27.52
71697;BME280;68167;59.120;37.898;2023-04-25T11:02:43;99707.59;;;21.38;27.98
71697;BME280;68167;59.120;37.898;2023-04-25T11:05:35;99688.91;;;21.15;28.00
71697;BME280;68167;59.120;37.898;2023-04-25T11:08:02;99703.56;;;21.23;28.15
71697;BME280;68167;59.120;37.898;2023-04-25T11:10:31;99618.31;;;20.99;28.03
71697;BME280;68167;59.120;37.898;2023-04-25T11:12:59;99698.75;;;21.82;28.14
71697;BME280;68167;59.120;37.898;2023-04-25T11:15:26;99682.94;;;22.17;27.84
71697;BME280;68167;59.120;37.898;2023-04-25T11:17:54;99674.13;;;22.32;26.47
71697;BME280;68167;59.120;37.898;2023-04-25T11:20:22;99683.19;;;22.37;26.81
71697;BME280;68167;59.120;37.898;2023-04-25T11:22:52;99645.31;;;22.04;26.90
71697;BME280;68167;59.120;37.898;2023-04-25T11:25:19;99664.63;;;22.14;27.22
71697;BME280;68167;59.120;37.898;2023-04-25T11:30:18;99659.34;;;21.85;27.18
71697;BME280;68167;59.120;37.898;2023-04-25T11:32:45;99677.31;;;21.89;26.95
71697;BME280;68167;59.120;37.898;2023-04-25T11:35:12;99655.34;;;22.03;26.90
71697;BME280;68167;59.120;37.898;2023-04-25T11:37:40;99676.06;;;22.32;27.43
71697;BME280;68167;59.120;37.898;2023-04-25T11:40:08;99611.13;;;21.90;26.53
71697;BME280;68167;59.120;37.898;2023-04-25T11:42:42;99646.66;;;22.10;26.47
71697;BME280;68167;59.120;37.898;2023-04-25T11:45:09;99639.66;;;22.33;26.24
71697;BME280;68167;59.120;37.898;2023-04-25T11:47:37;99649.81;;;22.97;26.12
71697;BME280;68167;59.120;37.898;2023-04-25T11:50:06;99652.81;;;23.60;25.65
71697;BME280;68167;59.120;37.898;2023-04-25T11:52:46;99640.44;;;23.90;24.80
71697;BME280;68167;59.120;37.898;2023-04-25T11:55:15;99628.22;;;24.16;24.93
71697;BME280;68167;59.120;37.898;2023-04-25T11:57:44;99665.56;;;24.62;24.04
71697;BME280;68167;59.120;37.898;2023-04-25T12:00:13;99609.72;;;24.53;23.47
71697;BME280;68167;59.120;37.898;2023-04-25T12:02:42;99654.75;;;25.01;23.82
71697;BME280;68167;59.120;37.898;2023-04-25T12:05:12;99642.81;;;25.25;23.47
71697;BME280;68167;59.120;37.898;2023-04-25T12:07:39;99609.47;;;25.32;23.05
71697;BME280;68167;59.120;37.898;2023-04-25T12:10:12;99585.41;;;25.37;22.78
71697;BME280;68167;59.120;37.898;2023-04-25T12:12:45;99641.69;;;25.87;22.33
71697;BME280;68167;59.120;37.898;2023-04-25T12:15:15;99643.50;;;26.03;22.09
71697;BME280;68167;59.120;37.898;2023-04-25T12:17:48;99641.28;;;25.85;22.01
71697;BME280;68167;59.120;37.898;2023-04-25T12:20:17;99603.81;;;25.63;22.44
71697;BME280;68167;59.120;37.898;2023-04-25T12:22:46;99641.13;;;25.78;22.40
71697;BME280;68167;59.120;37.898;2023-04-25T12:25:33;99604.69;;;25.67;21.90
71697;BME280;68167;59.120;37.898;2023-04-25T12:31:04;99589.88;;;25.87;21.76
71697;BME280;68167;59.120;37.898;2023-04-25T12:33:33;99619.06;;;26.10;21.41
71697;BME280;68167;59.120;37.898;2023-04-25T12:36:01;99595.16;;;26.26;20.79
71697;BME280;68167;59.120;37.898;2023-04-25T12:38:37;99610.81;;;26.82;20.72
71697;BME280;68167;59.120;37.898;2023-04-25T12:41:05;99545.44;;;26.66;20.69
71697;BME280;68167;59.120;37.898;2023-04-25T12:43:32;99574.53;;;27.11;19.87
71697;BME280;68167;59.120;37.898;2023-04-25T12:45:59;99599.16;;;27.48;19.41
71697;BME280;68167;59.120;37.898;2023-04-25T12:48:26;99593.81;;;26.96;18.94
71697;BME280;68167;59.120;37.898;2023-04-25T12:50:52;99589.75;;;26.30;19.67
71697;BME280;68167;59.120;37.898;2023-04-25T12:53:21;99551.09;;;25.33;20.15
71697;BME280;68167;59.120;37.898;2023-04-25T12:55:48;99594.47;;;25.22;19.86
71697;BME280;68167;59.120;37.898;2023-04-25T12:58:16;99502.13;;;24.98;20.47
71697;BME280;68167;59.120;37.898;2023-04-25T13:00:44;99518.66;;;25.50;20.53
71697;BME280;68167;59.120;37.898;2023-04-25T13:03:11;99561.63;;;26.25;19.80
71697;BME280;68167;59.120;37.898;2023-04-25T13:05:39;99533.16;;;26.26;19.63
71697;BME280;68167;59.120;37.898;2023-04-25T13:08:05;99564.56;;;26.66;19.52
71697;BME280;68167;59.120;37.898;2023-04-25T13:10:32;99535.22;;;26.60;19.42
71697;BME280;68167;59.120;37.898;2023-04-25T13:13:00;99564.34;;;27.08;19.33
71697;BME280;68167;59.120;37.898;2023-04-25T13:15:28;99544.34;;;27.38;18.87
71697;BME280;68167;59.120;37.898;2023-04-25T13:17:54;99536.41;;;27.63;17.99
71697;BME280;68167;59.120;37.898;2023-04-25T13:20:21;99561.69;;;27.97;17.89
71697;BME280;68167;59.120;37.898;2023-04-25T13:22:48;99518.69;;;27.97;17.94